PWSweather.com
Personal Weather Stations
Station Observations
ISTOCKPO4
Cheadle HulmeGB SK8 6NZ

Cheadle HulmeGB SK8 6NZ

Lat: 53.363783, Lon: -2.1948438

Elevation: 261

Station Type: Davis VP2 with Daytime FARS

http://www.cheadlehulmeweather.co.uk

High Low Average
Temperature 54.7°F12.6°C 39.4°F4.1°C 46.2°F7.9°C
Dew Point 44.6°F7.0°C 34.9°F1.6°C 42.0°F5.6°C
Winds 13.0 mph 20.9 kmh 4.0 mph 6.4 kmh 8.0 mph E12.9 kmh E
Wind Gusts 26.0 mph41.8 kmh 8.0 mph12.9 kmh 16.0 mph25.7 kmh
Humidity 92% 68% 86%
Pressure 29.77 in1008.1 mb 29.28 in991.5 mb -
Precipitation 0.00 in0.0 mm - -
Hour Temp Dew Point Humidity Winds Wind Gusts Pressure Precip Precip Rate Daily Precip Total
12:00 AM 46.0°F7.8°C 43.8°F6.6°C 92% 5.0 mph SE8.0 kmh SE 10.0 mph16.1 kmh 29.28 in991.5 mb 0.00 in0.0 mm 0.00 in0.0 mm 0.00 in0.0 mm
12:15 AM 46.0°F7.8°C 43.8°F6.6°C 92% 5.0 mph ESE8.0 kmh ESE 11.0 mph17.7 kmh 29.28 in991.5 mb 0.00 in0.0 mm 0.00 in0.0 mm 0.00 in0.0 mm
12:30 AM 46.0°F7.8°C 43.8°F6.6°C 92% 6.0 mph SE9.7 kmh SE 14.0 mph22.5 kmh 29.29 in991.9 mb 0.00 in0.0 mm 0.00 in0.0 mm 0.00 in0.0 mm
12:45 AM 46.0°F7.8°C 43.8°F6.6°C 92% 6.0 mph SE9.7 kmh SE 12.0 mph19.3 kmh 29.30 in992.2 mb 0.00 in0.0 mm 0.00 in0.0 mm 0.00 in0.0 mm
01:00 AM 45.9°F7.7°C 43.7°F6.5°C 92% 6.0 mph SE9.7 kmh SE 13.0 mph20.9 kmh 29.30 in992.2 mb 0.00 in0.0 mm 0.00 in0.0 mm 0.00 in0.0 mm
01:15 AM 45.9°F7.7°C 43.7°F6.5°C 92% 5.0 mph ESE8.0 kmh ESE 15.0 mph24.1 kmh 29.30 in992.2 mb 0.00 in0.0 mm 0.00 in0.0 mm 0.00 in0.0 mm
01:30 AM 45.9°F7.7°C 43.4°F6.3°C 91% 6.0 mph E9.7 kmh E 14.0 mph22.5 kmh 29.30 in992.2 mb 0.00 in0.0 mm 0.00 in0.0 mm 0.00 in0.0 mm
01:45 AM 45.9°F7.7°C 43.4°F6.3°C 91% 7.0 mph E11.3 kmh E 15.0 mph24.1 kmh 29.30 in992.2 mb 0.00 in0.0 mm 0.00 in0.0 mm 0.00 in0.0 mm
02:00 AM 45.9°F7.7°C 43.7°F6.5°C 92% 6.0 mph E9.7 kmh E 17.0 mph27.4 kmh 29.30 in992.2 mb 0.00 in0.0 mm 0.00 in0.0 mm 0.00 in0.0 mm
02:15 AM 45.9°F7.7°C 43.7°F6.5°C 92% 6.0 mph E9.7 kmh E 12.0 mph19.3 kmh 29.30 in992.2 mb 0.00 in0.0 mm 0.00 in0.0 mm 0.00 in0.0 mm
02:30 AM 45.9°F7.7°C 43.7°F6.5°C 92% 6.0 mph E9.7 kmh E 15.0 mph24.1 kmh 29.30 in992.2 mb 0.00 in0.0 mm 0.00 in0.0 mm 0.00 in0.0 mm
02:45 AM 45.7°F7.6°C 43.5°F6.4°C 92% 7.0 mph E11.3 kmh E 16.0 mph25.7 kmh 29.29 in991.9 mb 0.00 in0.0 mm 0.00 in0.0 mm 0.00 in0.0 mm
03:00 AM 45.5°F7.5°C 43.3°F6.3°C 92% 7.0 mph E11.3 kmh E 14.0 mph22.5 kmh 29.30 in992.2 mb 0.00 in0.0 mm 0.00 in0.0 mm 0.00 in0.0 mm
03:15 AM 45.5°F7.5°C 43.3°F6.3°C 92% 8.0 mph E12.9 kmh E 16.0 mph25.7 kmh 29.30 in992.2 mb 0.00 in0.0 mm 0.00 in0.0 mm 0.00 in0.0 mm
03:30 AM 45.5°F7.5°C 43.3°F6.3°C 92% 8.0 mph E12.9 kmh E 14.0 mph22.5 kmh 29.30 in992.2 mb 0.00 in0.0 mm 0.00 in0.0 mm 0.00 in0.0 mm
03:45 AM 45.5°F7.5°C 43.3°F6.3°C 92% 7.0 mph E11.3 kmh E 14.0 mph22.5 kmh 29.30 in992.2 mb 0.00 in0.0 mm 0.00 in0.0 mm 0.00 in0.0 mm
04:00 AM 45.3°F7.4°C 42.8°F6.0°C 91% 7.0 mph E11.3 kmh E 13.0 mph20.9 kmh 29.31 in992.6 mb 0.00 in0.0 mm 0.00 in0.0 mm 0.00 in0.0 mm
04:15 AM 45.7°F7.6°C 43.2°F6.2°C 91% 8.0 mph E12.9 kmh E 16.0 mph25.7 kmh 29.31 in992.6 mb 0.00 in0.0 mm 0.00 in0.0 mm 0.00 in0.0 mm
04:30 AM 45.9°F7.7°C 43.4°F6.3°C 91% 9.0 mph E14.5 kmh E 18.0 mph29.0 kmh 29.31 in992.6 mb 0.00 in0.0 mm 0.00 in0.0 mm 0.00 in0.0 mm
04:45 AM 45.9°F7.7°C 43.4°F6.3°C 91% 10.0 mph E16.1 kmh E 17.0 mph27.4 kmh 29.32 in992.9 mb 0.00 in0.0 mm 0.00 in0.0 mm 0.00 in0.0 mm
05:00 AM 45.7°F7.6°C 43.2°F6.2°C 91% 8.0 mph ENE12.9 kmh ENE 14.0 mph22.5 kmh 29.32 in992.9 mb 0.00 in0.0 mm 0.00 in0.0 mm 0.00 in0.0 mm
05:15 AM 45.7°F7.6°C 43.2°F6.2°C 91% 6.0 mph NE9.7 kmh NE 11.0 mph17.7 kmh 29.31 in992.6 mb 0.00 in0.0 mm 0.00 in0.0 mm 0.00 in0.0 mm
05:30 AM 45.5°F7.5°C 42.7°F5.9°C 90% 8.0 mph NE12.9 kmh NE 15.0 mph24.1 kmh 29.32 in992.9 mb 0.00 in0.0 mm 0.00 in0.0 mm 0.00 in0.0 mm
05:45 AM 45.3°F7.4°C 42.6°F5.9°C 90% 8.0 mph ENE12.9 kmh ENE 14.0 mph22.5 kmh 29.32 in992.9 mb 0.00 in0.0 mm 0.00 in0.0 mm 0.00 in0.0 mm
06:00 AM 45.1°F7.3°C 42.4°F5.8°C 90% 8.0 mph ENE12.9 kmh ENE 17.0 mph27.4 kmh 29.32 in992.9 mb 0.00 in0.0 mm 0.00 in0.0 mm 0.00 in0.0 mm
06:15 AM 45.1°F7.3°C 42.4°F5.8°C 90% 7.0 mph NE11.3 kmh NE 13.0 mph20.9 kmh 29.32 in992.9 mb 0.00 in0.0 mm 0.00 in0.0 mm 0.00 in0.0 mm
06:30 AM 44.8°F7.1°C 42.0°F5.6°C 90% 11.0 mph NE17.7 kmh NE 20.0 mph32.2 kmh 29.32 in992.9 mb 0.00 in0.0 mm 0.00 in0.0 mm 0.00 in0.0 mm
06:45 AM 44.8°F7.1°C 42.0°F5.6°C 90% 10.0 mph ENE16.1 kmh ENE 18.0 mph29.0 kmh 29.34 in993.6 mb 0.00 in0.0 mm 0.00 in0.0 mm 0.00 in0.0 mm
07:00 AM 44.8°F7.1°C 42.0°F5.6°C 90% 9.0 mph ENE14.5 kmh ENE 18.0 mph29.0 kmh 29.35 in993.9 mb 0.00 in0.0 mm 0.00 in0.0 mm 0.00 in0.0 mm
07:15 AM 44.6°F7.0°C 41.8°F5.4°C 90% 10.0 mph E16.1 kmh E 19.0 mph30.6 kmh 29.35 in993.9 mb 0.00 in0.0 mm 0.00 in0.0 mm 0.00 in0.0 mm
07:30 AM 44.8°F7.1°C 42.3°F5.7°C 91% 9.0 mph E14.5 kmh E 16.0 mph25.7 kmh 29.35 in993.9 mb 0.00 in0.0 mm 0.00 in0.0 mm 0.00 in0.0 mm
07:45 AM 45.1°F7.3°C 42.1°F5.6°C 89% 11.0 mph E17.7 kmh E 23.0 mph37.0 kmh 29.35 in993.9 mb 0.00 in0.0 mm 0.00 in0.0 mm 0.00 in0.0 mm
08:00 AM 45.0°F7.2°C 42.2°F5.7°C 90% 10.0 mph ENE16.1 kmh ENE 17.0 mph27.4 kmh 29.36 in994.2 mb 0.00 in0.0 mm 0.00 in0.0 mm 0.00 in0.0 mm
08:15 AM 45.0°F7.2°C 42.2°F5.7°C 90% 8.0 mph NE12.9 kmh NE 17.0 mph27.4 kmh 29.36 in994.2 mb 0.00 in0.0 mm 0.00 in0.0 mm 0.00 in0.0 mm
08:30 AM 45.3°F7.4°C 42.3°F5.7°C 89% 10.0 mph ENE16.1 kmh ENE 18.0 mph29.0 kmh 29.37 in994.6 mb 0.00 in0.0 mm 0.00 in0.0 mm 0.00 in0.0 mm
08:45 AM 45.7°F7.6°C 42.0°F5.6°C 87% 8.0 mph ENE12.9 kmh ENE 17.0 mph27.4 kmh 29.36 in994.2 mb 0.00 in0.0 mm 0.00 in0.0 mm 0.00 in0.0 mm
09:00 AM 45.7°F7.6°C 41.7°F5.4°C 86% 9.0 mph E14.5 kmh E 17.0 mph27.4 kmh 29.37 in994.6 mb 0.00 in0.0 mm 0.00 in0.0 mm 0.00 in0.0 mm
09:15 AM 45.3°F7.4°C 42.0°F5.6°C 88% 9.0 mph ENE14.5 kmh ENE 16.0 mph25.7 kmh 29.37 in994.6 mb 0.00 in0.0 mm 0.00 in0.0 mm 0.00 in0.0 mm
09:30 AM 45.1°F7.3°C 42.1°F5.6°C 89% 7.0 mph ENE11.3 kmh ENE 15.0 mph24.1 kmh 29.38 in994.9 mb 0.00 in0.0 mm 0.00 in0.0 mm 0.00 in0.0 mm
09:45 AM 45.1°F7.3°C 42.4°F5.8°C 90% 6.0 mph E9.7 kmh E 11.0 mph17.7 kmh 29.38 in994.9 mb 0.00 in0.0 mm 0.00 in0.0 mm 0.00 in0.0 mm
10:00 AM 45.1°F7.3°C 42.4°F5.8°C 90% 6.0 mph E9.7 kmh E 17.0 mph27.4 kmh 29.39 in995.3 mb 0.00 in0.0 mm 0.00 in0.0 mm 0.00 in0.0 mm
10:15 AM 45.7°F7.6°C 42.6°F5.9°C 89% 6.0 mph ENE9.7 kmh ENE 13.0 mph20.9 kmh 29.39 in995.3 mb 0.00 in0.0 mm 0.00 in0.0 mm 0.00 in0.0 mm
10:30 AM 46.0°F7.8°C 42.7°F5.9°C 88% 9.0 mph E14.5 kmh E 19.0 mph30.6 kmh 29.40 in995.6 mb 0.00 in0.0 mm 0.00 in0.0 mm 0.00 in0.0 mm
10:45 AM 45.9°F7.7°C 42.5°F5.8°C 88% 9.0 mph E14.5 kmh E 17.0 mph27.4 kmh 29.40 in995.6 mb 0.00 in0.0 mm 0.00 in0.0 mm 0.00 in0.0 mm
11:00 AM 46.0°F7.8°C 43.0°F6.1°C 89% 9.0 mph E14.5 kmh E 20.0 mph32.2 kmh 29.41 in995.9 mb 0.00 in0.0 mm 0.00 in0.0 mm 0.00 in0.0 mm
11:15 AM 46.6°F8.1°C 43.5°F6.4°C 89% 9.0 mph E14.5 kmh E 18.0 mph29.0 kmh 29.41 in995.9 mb 0.00 in0.0 mm 0.00 in0.0 mm 0.00 in0.0 mm
11:30 AM 46.6°F8.1°C 43.5°F6.4°C 89% 8.0 mph E12.9 kmh E 16.0 mph25.7 kmh 29.42 in996.3 mb 0.00 in0.0 mm 0.00 in0.0 mm 0.00 in0.0 mm
11:45 AM 46.6°F8.1°C 43.5°F6.4°C 89% 6.0 mph E9.7 kmh E 13.0 mph20.9 kmh 29.43 in996.6 mb 0.00 in0.0 mm 0.00 in0.0 mm 0.00 in0.0 mm
12:00 PM 47.1°F8.4°C 44.0°F6.7°C 89% 8.0 mph SE12.9 kmh SE 14.0 mph22.5 kmh 29.44 in997.0 mb 0.00 in0.0 mm 0.00 in0.0 mm 0.00 in0.0 mm
12:15 PM 48.0°F8.9°C 44.0°F6.7°C 86% 9.0 mph S14.5 kmh S 16.0 mph25.7 kmh 29.45 in997.3 mb 0.00 in0.0 mm 0.00 in0.0 mm 0.00 in0.0 mm
12:30 PM 48.0°F8.9°C 43.4°F6.3°C 84% 7.0 mph SSE11.3 kmh SSE 13.0 mph20.9 kmh 29.47 in998.0 mb 0.00 in0.0 mm 0.00 in0.0 mm 0.00 in0.0 mm
12:45 PM 48.6°F9.2°C 43.9°F6.6°C 84% 6.0 mph SSE9.7 kmh SSE 10.0 mph16.1 kmh 29.48 in998.3 mb 0.00 in0.0 mm 0.00 in0.0 mm 0.00 in0.0 mm
01:00 PM 50.4°F10.2°C 44.1°F6.7°C 79% 7.0 mph S11.3 kmh S 12.0 mph19.3 kmh 29.48 in998.3 mb 0.00 in0.0 mm 0.00 in0.0 mm 0.00 in0.0 mm
01:15 PM 50.9°F10.5°C 43.9°F6.6°C 77% 10.0 mph S16.1 kmh S 17.0 mph27.4 kmh 29.49 in998.6 mb 0.00 in0.0 mm 0.00 in0.0 mm 0.00 in0.0 mm
01:30 PM 51.4°F10.8°C 43.8°F6.6°C 75% 10.0 mph S16.1 kmh S 17.0 mph27.4 kmh 29.50 in999.0 mb 0.00 in0.0 mm 0.00 in0.0 mm 0.00 in0.0 mm
01:45 PM 53.8°F12.1°C 44.6°F7.0°C 71% 9.0 mph S14.5 kmh S 18.0 mph29.0 kmh 29.50 in999.0 mb 0.00 in0.0 mm 0.00 in0.0 mm 0.00 in0.0 mm
02:00 PM 52.2°F11.2°C 43.4°F6.3°C 72% 7.0 mph SSE11.3 kmh SSE 12.0 mph19.3 kmh 29.51 in999.3 mb 0.00 in0.0 mm 0.00 in0.0 mm 0.00 in0.0 mm
02:15 PM 53.1°F11.7°C 44.3°F6.8°C 72% 6.0 mph SSE9.7 kmh SSE 11.0 mph17.7 kmh 29.52 in999.7 mb 0.00 in0.0 mm 0.00 in0.0 mm 0.00 in0.0 mm
02:30 PM 53.2°F11.8°C 43.7°F6.5°C 70% 6.0 mph SE9.7 kmh SE 12.0 mph19.3 kmh 29.53 in1000.0 mb 0.00 in0.0 mm 0.00 in0.0 mm 0.00 in0.0 mm
02:45 PM 52.9°F11.6°C 43.7°F6.5°C 71% 4.0 mph SE6.4 kmh SE 9.0 mph14.5 kmh 29.54 in1000.3 mb 0.00 in0.0 mm 0.00 in0.0 mm 0.00 in0.0 mm
03:00 PM 53.1°F11.7°C 43.2°F6.2°C 69% 6.0 mph SSE9.7 kmh SSE 12.0 mph19.3 kmh 29.54 in1000.3 mb 0.00 in0.0 mm 0.00 in0.0 mm 0.00 in0.0 mm
03:15 PM 53.4°F11.9°C 43.1°F6.2°C 68% 5.0 mph SE8.0 kmh SE 8.0 mph12.9 kmh 29.55 in1000.7 mb 0.00 in0.0 mm 0.00 in0.0 mm 0.00 in0.0 mm
03:30 PM 54.7°F12.6°C 44.3°F6.8°C 68% 5.0 mph SE8.0 kmh SE 10.0 mph16.1 kmh 29.55 in1000.7 mb 0.00 in0.0 mm 0.00 in0.0 mm 0.00 in0.0 mm
03:45 PM 53.6°F12.0°C 44.0°F6.7°C 70% 5.0 mph ESE8.0 kmh ESE 11.0 mph17.7 kmh 29.55 in1000.7 mb 0.00 in0.0 mm 0.00 in0.0 mm 0.00 in0.0 mm
04:00 PM 52.9°F11.6°C 44.1°F6.7°C 72% 6.0 mph E9.7 kmh E 12.0 mph19.3 kmh 29.55 in1000.7 mb 0.00 in0.0 mm 0.00 in0.0 mm 0.00 in0.0 mm
04:15 PM 52.5°F11.4°C 44.1°F6.7°C 73% 6.0 mph E9.7 kmh E 14.0 mph22.5 kmh 29.56 in1001.0 mb 0.00 in0.0 mm 0.00 in0.0 mm 0.00 in0.0 mm
04:30 PM 52.5°F11.4°C 43.4°F6.3°C 71% 6.0 mph E9.7 kmh E 12.0 mph19.3 kmh 29.56 in1001.0 mb 0.00 in0.0 mm 0.00 in0.0 mm 0.00 in0.0 mm
04:45 PM 52.5°F11.4°C 43.4°F6.3°C 71% 6.0 mph E9.7 kmh E 12.0 mph19.3 kmh 29.57 in1001.4 mb 0.00 in0.0 mm 0.00 in0.0 mm 0.00 in0.0 mm
05:00 PM 52.2°F11.2°C 43.0°F6.1°C 71% 6.0 mph E9.7 kmh E 13.0 mph20.9 kmh 29.58 in1001.7 mb 0.00 in0.0 mm 0.00 in0.0 mm 0.00 in0.0 mm
05:15 PM 51.6°F10.9°C 42.9°F6.1°C 72% 6.0 mph E9.7 kmh E 11.0 mph17.7 kmh 29.59 in1002.0 mb 0.00 in0.0 mm 0.00 in0.0 mm 0.00 in0.0 mm
05:30 PM 50.7°F10.4°C 44.1°F6.7°C 78% 9.0 mph NE14.5 kmh NE 17.0 mph27.4 kmh 29.60 in1002.4 mb 0.00 in0.0 mm 0.00 in0.0 mm 0.00 in0.0 mm
05:45 PM 48.7°F9.3°C 43.5°F6.4°C 82% 9.0 mph E14.5 kmh E 17.0 mph27.4 kmh 29.61 in1002.7 mb 0.00 in0.0 mm 0.00 in0.0 mm 0.00 in0.0 mm
06:00 PM 46.6°F8.1°C 42.3°F5.7°C 85% 10.0 mph ENE16.1 kmh ENE 23.0 mph37.0 kmh 29.63 in1003.4 mb 0.00 in0.0 mm 0.00 in0.0 mm 0.00 in0.0 mm
06:15 PM 45.7°F7.6°C 41.7°F5.4°C 86% 9.0 mph E14.5 kmh E 14.0 mph22.5 kmh 29.64 in1003.7 mb 0.00 in0.0 mm 0.00 in0.0 mm 0.00 in0.0 mm
06:30 PM 45.1°F7.3°C 41.5°F5.3°C 87% 7.0 mph E11.3 kmh E 14.0 mph22.5 kmh 29.65 in1004.1 mb 0.00 in0.0 mm 0.00 in0.0 mm 0.00 in0.0 mm
06:45 PM 44.8°F7.1°C 41.1°F5.1°C 87% 9.0 mph ENE14.5 kmh ENE 19.0 mph30.6 kmh 29.66 in1004.4 mb 0.00 in0.0 mm 0.00 in0.0 mm 0.00 in0.0 mm
07:00 PM 44.1°F6.7°C 40.7°F4.8°C 88% 10.0 mph ENE16.1 kmh ENE 18.0 mph29.0 kmh 29.67 in1004.7 mb 0.00 in0.0 mm 0.00 in0.0 mm 0.00 in0.0 mm
07:15 PM 43.5°F6.4°C 40.2°F4.6°C 88% 9.0 mph ENE14.5 kmh ENE 18.0 mph29.0 kmh 29.68 in1005.1 mb 0.00 in0.0 mm 0.00 in0.0 mm 0.00 in0.0 mm
07:30 PM 43.2°F6.2°C 40.1°F4.5°C 89% 6.0 mph ENE9.7 kmh ENE 13.0 mph20.9 kmh 29.68 in1005.1 mb 0.00 in0.0 mm 0.00 in0.0 mm 0.00 in0.0 mm
07:45 PM 43.0°F6.1°C 40.0°F4.4°C 89% 6.0 mph E9.7 kmh E 12.0 mph19.3 kmh 29.69 in1005.4 mb 0.00 in0.0 mm 0.00 in0.0 mm 0.00 in0.0 mm
08:00 PM 42.6°F5.9°C 39.3°F4.1°C 88% 8.0 mph E12.9 kmh E 16.0 mph25.7 kmh 29.69 in1005.4 mb 0.00 in0.0 mm 0.00 in0.0 mm 0.00 in0.0 mm
08:15 PM 42.3°F5.7°C 39.0°F3.9°C 88% 10.0 mph NE16.1 kmh NE 21.0 mph33.8 kmh 29.70 in1005.8 mb 0.00 in0.0 mm 0.00 in0.0 mm 0.00 in0.0 mm
08:30 PM 41.9°F5.5°C 38.9°F3.8°C 89% 6.0 mph ENE9.7 kmh ENE 11.0 mph17.7 kmh 29.70 in1005.8 mb 0.00 in0.0 mm 0.00 in0.0 mm 0.00 in0.0 mm
08:45 PM 41.7°F5.4°C 38.7°F3.7°C 89% 8.0 mph NE12.9 kmh NE 14.0 mph22.5 kmh 29.70 in1005.8 mb 0.00 in0.0 mm 0.00 in0.0 mm 0.00 in0.0 mm
09:00 PM 41.5°F5.3°C 38.5°F3.6°C 89% 7.0 mph ENE11.3 kmh ENE 15.0 mph24.1 kmh 29.71 in1006.1 mb 0.00 in0.0 mm 0.00 in0.0 mm 0.00 in0.0 mm
09:15 PM 41.2°F5.1°C 38.2°F3.4°C 89% 10.0 mph ENE16.1 kmh ENE 20.0 mph32.2 kmh 29.71 in1006.1 mb 0.00 in0.0 mm 0.00 in0.0 mm 0.00 in0.0 mm
09:30 PM 40.6°F4.8°C 37.9°F3.3°C 90% 12.0 mph ENE19.3 kmh ENE 23.0 mph37.0 kmh 29.72 in1006.4 mb 0.00 in0.0 mm 0.00 in0.0 mm 0.00 in0.0 mm
09:45 PM 40.3°F4.6°C 37.6°F3.1°C 90% 12.0 mph ENE19.3 kmh ENE 21.0 mph33.8 kmh 29.73 in1006.8 mb 0.00 in0.0 mm 0.00 in0.0 mm 0.00 in0.0 mm
10:00 PM 40.3°F4.6°C 37.6°F3.1°C 90% 10.0 mph ENE16.1 kmh ENE 23.0 mph37.0 kmh 29.73 in1006.8 mb 0.00 in0.0 mm 0.00 in0.0 mm 0.00 in0.0 mm
10:15 PM 40.3°F4.6°C 37.6°F3.1°C 90% 9.0 mph ENE14.5 kmh ENE 21.0 mph33.8 kmh 29.74 in1007.1 mb 0.00 in0.0 mm 0.00 in0.0 mm 0.00 in0.0 mm
10:30 PM 39.7°F4.3°C 36.8°F2.7°C 89% 12.0 mph ENE19.3 kmh ENE 21.0 mph33.8 kmh 29.74 in1007.1 mb 0.00 in0.0 mm 0.00 in0.0 mm 0.00 in0.0 mm
10:45 PM 39.6°F4.2°C 36.6°F2.6°C 89% 12.0 mph ENE19.3 kmh ENE 24.0 mph38.6 kmh 29.75 in1007.5 mb 0.00 in0.0 mm 0.00 in0.0 mm 0.00 in0.0 mm
11:00 PM 39.7°F4.3°C 36.2°F2.3°C 87% 13.0 mph ENE20.9 kmh ENE 26.0 mph41.8 kmh 29.75 in1007.5 mb 0.00 in0.0 mm 0.00 in0.0 mm 0.00 in0.0 mm
11:15 PM 39.7°F4.3°C 36.2°F2.3°C 87% 11.0 mph ENE17.7 kmh ENE 19.0 mph30.6 kmh 29.76 in1007.8 mb 0.00 in0.0 mm 0.00 in0.0 mm 0.00 in0.0 mm
11:30 PM 39.4°F4.1°C 35.5°F1.9°C 86% 11.0 mph NE17.7 kmh NE 21.0 mph33.8 kmh 29.77 in1008.1 mb 0.00 in0.0 mm 0.00 in0.0 mm 0.00 in0.0 mm
11:45 PM 39.4°F4.1°C 34.9°F1.6°C 84% 9.0 mph ENE14.5 kmh ENE 18.0 mph29.0 kmh 29.77 in1008.1 mb 0.00 in0.0 mm 0.00 in0.0 mm 0.00 in0.0 mm